Snow/Ice From: 24-10-2018 05:00 Until: 09:00 warning for: Snow/Ice Level: Yellow info button
suomi:
Liikennesää: Ajokeli muuttuu huonoksi aamulla tienpintojen jäätymisen vuoksi.

svenska:
Trafikvädret: Väglaget blir dåligt på morgonen p.g.a. tillfrysning av vägytor.

english:
Traffic weather warning: Bad road conditions are expected in the morning because of ice-covered roads. 


Thunder radar more information blitzortung!


Löydät sääaseman tiedot myös:

European Weather Network

Finland Weather Exchange

Weather Underground

AWEKAS



Weather Underground säähistoriasivu

Päivittäin yhteenveto Joulukuu 8, 2017 Yksiköt:  Metriset    Englantilaiset   Molemmat
« Edellinen Päivä
Seuraava Päivä »
Päivittäin Viikoittain Kuukausittain Vuosittain Mukautettu
  Korkea: Matala: Keskiarvo:
Lämpötila: -17.8 °C 0.2 °C 1.6 °C
Kastepiste: -17.8 °C -0.2 °C 1.2 °C
Kosteus: Humidity % 92 % 96 %
Tuulen nopeus: 0 km/h 0 km/h 2.6 km/h
Tuulenpuuska: 0 km/h - -
Tuuli:- - South
Ilmanpaine: 0 hPa 981.6 hPa -
Sade: 0 mm    
Historical Graphs
 
 
Taulukkotiedot Joulukuu 8, 2017
Aika Lämpötila Kastepiste Ilmanpaine Tuuli Tuulen nopeus Tuulenpuuska Kosteus Sademäärä (tunneittain)
-17.8 °C -17.8 °C 0 hPa Calm     Humidity % 0 mm
00:00 0.2 °C -0.2 °C 985.7 hPa South 3.2 km/h 11.3 km/h 97 % 0 mm
00:30 0.4 °C 0 °C 985.3 hPa SSE 3.2 km/h 20.9 km/h 97 % 0 mm
00:45 0.4 °C 0 °C 985 hPa South 3.2 km/h 11.3 km/h 97 % 0 mm
01:00 0.5 °C 0.1 °C 985 hPa SSE 3.2 km/h 12.9 km/h 97 % 0 mm
01:15 0.6 °C 0.1 °C 984.6 hPa SSE 3.2 km/h 14.5 km/h 97 % 0 mm
01:30 0.6 °C 0.2 °C 984.6 hPa SSW 3.2 km/h 16.1 km/h 97 % 0 mm
01:45 0.7 °C 0.3 °C 984.3 hPa South 3.2 km/h 9.7 km/h 97 % 0 mm
02:00 0.8 °C 0.4 °C 984.3 hPa SSE 3.2 km/h 17.7 km/h 97 % 0 mm
02:15 0.9 °C 0.5 °C 984.3 hPa SSW 4.8 km/h 14.5 km/h 97 % 0 mm
02:30 0.9 °C 0.5 °C 984 hPa South 3.2 km/h 12.9 km/h 97 % 0 mm
02:45 0.9 °C 0.7 °C 984 hPa SSE 3.2 km/h 11.3 km/h 98 % 0 mm
03:00 0.9 °C 0.5 °C 984 hPa SSE 1.6 km/h 8 km/h 97 % 0 mm
03:15 1.1 °C 0.8 °C 983.6 hPa South 4.8 km/h 14.5 km/h 98 % 0 mm
03:30 1.1 °C 0.8 °C 983.6 hPa South 3.2 km/h 14.5 km/h 98 % 0 mm
03:45 1.2 °C 0.9 °C 983.6 hPa South 1.6 km/h 11.3 km/h 98 % 0 mm
04:00 1.2 °C 0.9 °C 983.3 hPa South 4.8 km/h 14.5 km/h 98 % 0 mm
04:15 1.1 °C 0.8 °C 983.3 hPa SSE 1.6 km/h 11.3 km/h 98 % 0 mm
04:30 1.2 °C 0.9 °C 983 hPa SSW 1.6 km/h 9.7 km/h 98 % 0 mm
04:45 1.3 °C 1.1 °C 983 hPa SSW 3.2 km/h 11.3 km/h 98 % 0 mm
05:00 1.3 °C 1 °C 982.6 hPa SSE 3.2 km/h 14.5 km/h 98 % 0 mm
05:30 1.3 °C 1.1 °C 982.6 hPa SSE 1.6 km/h 12.9 km/h 98 % 0 mm
06:00 1.5 °C 1.2 °C 982.3 hPa SSE 1.6 km/h 11.3 km/h 98 % 0 mm
06:15 1.4 °C 1.2 °C 982.3 hPa Calm   8 km/h 98 % 0 mm
06:30 1.4 °C 1.2 °C 982.3 hPa SSE 1.6 km/h 11.3 km/h 98 % 0 mm
06:45 1.4 °C 1.2 °C 982.3 hPa SSE 1.6 km/h 9.7 km/h 98 % 0 mm
07:00 1.6 °C 1.3 °C 981.9 hPa South 1.6 km/h 9.7 km/h 98 % 0 mm
07:30 1.6 °C 1.3 °C 981.9 hPa South 1.6 km/h 6.4 km/h 98 % 0 mm
07:45 1.7 °C 1.4 °C 981.6 hPa South 1.6 km/h 11.3 km/h 98 % 0 mm
08:00 1.7 °C 1.4 °C 981.6 hPa SSE 1.6 km/h 8 km/h 98 % 0 mm
08:15 1.7 °C 1.4 °C 981.6 hPa SSE 1.6 km/h 11.3 km/h 98 % 0 mm
08:30 1.8 °C 1.5 °C 981.9 hPa SSE 1.6 km/h 12.9 km/h 98 % 0 mm
09:00 1.8 °C 1.6 °C 981.9 hPa Calm   6.4 km/h 98 % 0 mm
09:15 1.8 °C 1.6 °C 981.9 hPa Calm   3.2 km/h 98 % 0 mm
09:30 1.9 °C 1.7 °C 981.9 hPa Calm   3.2 km/h 98 % 0 mm
09:45 1.9 °C 1.6 °C 981.9 hPa South 1.6 km/h 8 km/h 98 % 0 mm
10:00 1.9 °C 1.7 °C 981.9 hPa Calm   3.2 km/h 98 % 0 mm
10:15 1.9 °C 1.7 °C 981.9 hPa Calm   3.2 km/h 98 % 0 mm
10:30 2.1 °C 1.8 °C 981.9 hPa Calm   8 km/h 98 % 0 mm
10:45 2.2 °C 1.9 °C 981.9 hPa SSE 1.6 km/h 9.7 km/h 98 % 0 mm
11:00 2.4 °C 2.1 °C 981.9 hPa South 1.6 km/h 9.7 km/h 98 % 0 mm
11:15 2.5 °C 2.4 °C 981.9 hPa South 1.6 km/h 8 km/h 99 % 0 mm
11:30 2.5 °C 2.4 °C 981.6 hPa SSE 1.6 km/h 9.7 km/h 99 % 0 mm
11:45 2.6 °C 2.3 °C 981.6 hPa South 3.2 km/h 12.9 km/h 98 % 0 mm
12:00 2.7 °C 2.4 °C 981.9 hPa SSE 1.6 km/h 9.7 km/h 98 % 0 mm
12:15 2.8 °C 2.6 °C 981.9 hPa SSW 1.6 km/h 9.7 km/h 99 % 0 mm
12:45 2.8 °C 2.6 °C 981.9 hPa Calm   8 km/h 99 % 0 mm
13:00 2.8 °C 2.5 °C 981.9 hPa Calm   9.7 km/h 98 % 0 mm
13:15 2.8 °C 2.5 °C 981.9 hPa SSE 1.6 km/h 8 km/h 98 % 0 mm
13:30 2.8 °C 2.5 °C 981.9 hPa South 1.6 km/h 11.3 km/h 98 % 0 mm
14:00 2.8 °C 2.5 °C 981.6 hPa SSE 1.6 km/h 9.7 km/h 98 % 0 mm
14:15 2.8 °C 2.5 °C 981.6 hPa SSE 3.2 km/h 16.1 km/h 98 % 0 mm
14:30 2.8 °C 2.5 °C 981.6 hPa SSE 3.2 km/h 12.9 km/h 98 % 0 mm
14:45 2.7 °C 2.4 °C 981.9 hPa South 3.2 km/h 11.3 km/h 98 % 0 mm
15:45 2.4 °C 2.2 °C 981.9 hPa Calm   8 km/h 98 % 0 mm
16:00 2.4 °C 2.2 °C 981.9 hPa South 1.6 km/h 11.3 km/h 98 % 0 mm
16:30 2.5 °C 2.2 °C 981.9 hPa SSE 1.6 km/h 8 km/h 98 % 0 mm
17:00 2.4 °C 2.2 °C 981.6 hPa South 3.2 km/h 12.9 km/h 98 % 0 mm
17:15 2.3 °C 2.1 °C 981.6 hPa SSE 3.2 km/h 14.5 km/h 98 % 0 mm
17:30 2.4 °C 2.1 °C 981.6 hPa SSE 4.8 km/h 17.7 km/h 98 % 0 mm
17:45 2.3 °C 2.1 °C 981.6 hPa South 1.6 km/h 14.5 km/h 98 % 0 mm
18:00 2.4 °C 2.1 °C 981.9 hPa SSW 3.2 km/h 9.7 km/h 98 % 0 mm
18:15 2.4 °C 2.2 °C 981.9 hPa South 3.2 km/h 16.1 km/h 98 % 0 mm
18:30 2.4 °C 2 °C 981.9 hPa South 3.2 km/h 14.5 km/h 97 % 0 mm
19:00 2.4 °C 1.8 °C 981.9 hPa South 4.8 km/h 14.5 km/h 96 % 0 mm
19:15 2.1 °C 1.5 °C 981.9 hPa SSE 1.6 km/h 9.7 km/h 96 % 0 mm
19:30 2.1 °C 1.6 °C 981.9 hPa South 4.8 km/h 14.5 km/h 97 % 0 mm
20:00 1.8 °C 1.3 °C 981.9 hPa South 3.2 km/h 14.5 km/h 96 % 0 mm
20:15 1.8 °C 1.2 °C 981.9 hPa South 3.2 km/h 12.9 km/h 96 % 0 mm
20:30 1.8 °C 1.2 °C 982.3 hPa South 3.2 km/h 11.3 km/h 96 % 0 mm
20:45 1.9 °C 1.4 °C 982.3 hPa SSE 4.8 km/h 20.9 km/h 96 % 0 mm
21:00 1.8 °C 1.3 °C 982.3 hPa South 3.2 km/h 11.3 km/h 96 % 0 mm
21:15 1.8 °C 1.3 °C 981.9 hPa SSE 4.8 km/h 16.1 km/h 96 % 0 mm
21:30 1.8 °C 1.2 °C 982.3 hPa SSE 3.2 km/h 16.1 km/h 96 % 0 mm
21:45 1.8 °C 1.2 °C 981.9 hPa South 3.2 km/h 14.5 km/h 96 % 0 mm
22:00 1.9 °C 1.3 °C 982.3 hPa South 4.8 km/h 27.4 km/h 96 % 0 mm
22:30 2.3 °C 1.5 °C 982.3 hPa South 6.4 km/h 22.5 km/h 94 % 0 mm
23:00 2.3 °C 1.3 °C 982.3 hPa South 4.8 km/h 14.5 km/h 93 % 0 mm
23:30 2.7 °C 1.5 °C 982.3 hPa SSE 6.4 km/h 17.7 km/h 92 % 0 mm
23:45 2.7 °C 1.7 °C 982.3 hPa SSE 8 km/h 19.3 km/h 93 % 0 mm
Esan sääasema
Terveisin Weather Underground - 2.75 mb

Alkuperäinen skripti  Jim McMurry - jmcmurry@mwt.net Sovitettu myös templatelle  Wim van der Kuil - Leuven-Template.eu

Laitteet joita käytämme:

Sääasema
Davis VP2

Sääasemaohjelma
Cumulus

Sääaseman tietokone
Asus EeePC

Palveluntarjoaja
Suncomet

Davis VP2

Cumulus

Asus EeePC

Suncomet